sensor_id;sensor_type;location;lat;lon;timestamp;P1;P2;P0
45990;PMS5003;31721;41.740;-88.000;2023-03-26T00:01:50;4;3;
45990;PMS5003;31721;41.740;-88.000;2023-03-26T00:04:18;6;6;
45990;PMS5003;31721;41.740;-88.000;2023-03-26T00:06:47;4;4;
45990;PMS5003;31721;41.740;-88.000;2023-03-26T00:09:14;6;4;
45990;PMS5003;31721;41.740;-88.000;2023-03-26T00:11:45;3;3;
45990;PMS5003;31721;41.740;-88.000;2023-03-26T00:14:13;3;3;
45990;PMS5003;31721;41.740;-88.000;2023-03-26T00:16:42;2;2;
45990;PMS5003;31721;41.740;-88.000;2023-03-26T00:19:10;4;4;
45990;PMS5003;31721;41.740;-88.000;2023-03-26T00:21:39;7;7;
45990;PMS5003;31721;41.740;-88.000;2023-03-26T00:24:08;4;4;
45990;PMS5003;31721;41.740;-88.000;2023-03-26T00:26:39;6;6;
45990;PMS5003;31721;41.740;-88.000;2023-03-26T00:29:07;7;4;
45990;PMS5003;31721;41.740;-88.000;2023-03-26T00:31:35;2;2;
45990;PMS5003;31721;41.740;-88.000;2023-03-26T00:34:03;4;4;
45990;PMS5003;31721;41.740;-88.000;2023-03-26T00:36:32;7;6;
45990;PMS5003;31721;41.740;-88.000;2023-03-26T00:39:00;4;4;
45990;PMS5003;31721;41.740;-88.000;2023-03-26T00:41:28;4;2;
45990;PMS5003;31721;41.740;-88.000;2023-03-26T00:43:57;3;3;
45990;PMS5003;31721;41.740;-88.000;2023-03-26T00:46:27;7;3;
45990;PMS5003;31721;41.740;-88.000;2023-03-26T00:48:56;7;6;
45990;PMS5003;31721;41.740;-88.000;2023-03-26T00:51:24;6;3;
45990;PMS5003;31721;41.740;-88.000;2023-03-26T00:53:53;3;3;
45990;PMS5003;31721;41.740;-88.000;2023-03-26T00:56:22;4;4;
45990;PMS5003;31721;41.740;-88.000;2023-03-26T00:58:50;7;4;
45990;PMS5003;31721;41.740;-88.000;2023-03-26T01:01:21;6;4;
45990;PMS5003;31721;41.740;-88.000;2023-03-26T01:03:50;4;4;
45990;PMS5003;31721;41.740;-88.000;2023-03-26T01:06:20;7;4;
45990;PMS5003;31721;41.740;-88.000;2023-03-26T01:08:50;4;2;
45990;PMS5003;31721;41.740;-88.000;2023-03-26T01:11:20;4;4;
45990;PMS5003;31721;41.740;-88.000;2023-03-26T01:13:51;4;3;
45990;PMS5003;31721;41.740;-88.000;2023-03-26T01:16:25;7;7;
45990;PMS5003;31721;41.740;-88.000;2023-03-26T01:18:56;6;6;
45990;PMS5003;31721;41.740;-88.000;2023-03-26T01:21:25;6;3;
45990;PMS5003;31721;41.740;-88.000;2023-03-26T01:23:56;2;2;
45990;PMS5003;31721;41.740;-88.000;2023-03-26T01:26:30;6;6;
45990;PMS5003;31721;41.740;-88.000;2023-03-26T01:29:12;3;3;
45990;PMS5003;31721;41.740;-88.000;2023-03-26T01:31:47;4;4;
45990;PMS5003;31721;41.740;-88.000;2023-03-26T01:34:23;7;6;
45990;PMS5003;31721;41.740;-88.000;2023-03-26T01:37:05;7;6;
45990;PMS5003;31721;41.740;-88.000;2023-03-26T01:39:42;7;7;
45990;PMS5003;31721;41.740;-88.000;2023-03-26T01:42:21;9;6;
45990;PMS5003;31721;41.740;-88.000;2023-03-26T01:44:58;14;9;
45990;PMS5003;31721;41.740;-88.000;2023-03-26T01:47:33;11;8;
45990;PMS5003;31721;41.740;-88.000;2023-03-26T01:50:03;7;7;
45990;PMS5003;31721;41.740;-88.000;2023-03-26T01:52:32;12;8;
45990;PMS5003;31721;41.740;-88.000;2023-03-26T01:55:00;9;8;
45990;PMS5003;31721;41.740;-88.000;2023-03-26T01:57:32;6;6;
45990;PMS5003;31721;41.740;-88.000;2023-03-26T02:00:06;13;8;
45990;PMS5003;31721;41.740;-88.000;2023-03-26T02:02:46;7;7;
45990;PMS5003;31721;41.740;-88.000;2023-03-26T02:05:24;6;6;
45990;PMS5003;31721;41.740;-88.000;2023-03-26T02:07:58;7;7;
45990;PMS5003;31721;41.740;-88.000;2023-03-26T02:10:35;11;6;
45990;PMS5003;31721;41.740;-88.000;2023-03-26T02:13:08;3;3;
45990;PMS5003;31721;41.740;-88.000;2023-03-26T02:15:36;8;7;
45990;PMS5003;31721;41.740;-88.000;2023-03-26T02:18:05;4;4;
45990;PMS5003;31721;41.740;-88.000;2023-03-26T02:20:33;8;7;
45990;PMS5003;31721;41.740;-88.000;2023-03-26T02:23:01;6;4;
45990;PMS5003;31721;41.740;-88.000;2023-03-26T02:25:29;6;6;
45990;PMS5003;31721;41.740;-88.000;2023-03-26T02:27:57;8;6;
45990;PMS5003;31721;41.740;-88.000;2023-03-26T02:30:25;7;6;
45990;PMS5003;31721;41.740;-88.000;2023-03-26T02:32:53;8;8;
45990;PMS5003;31721;41.740;-88.000;2023-03-26T02:35:22;9;8;
45990;PMS5003;31721;41.740;-88.000;2023-03-26T02:37:50;8;7;
45990;PMS5003;31721;41.740;-88.000;2023-03-26T02:40:18;8;8;
45990;PMS5003;31721;41.740;-88.000;2023-03-26T02:42:46;14;12;
45990;PMS5003;31721;41.740;-88.000;2023-03-26T02:45:14;10;10;
45990;PMS5003;31721;41.740;-88.000;2023-03-26T02:47:42;8;7;
45990;PMS5003;31721;41.740;-88.000;2023-03-26T02:50:10;12;11;
45990;PMS5003;31721;41.740;-88.000;2023-03-26T02:52:38;10;10;
45990;PMS5003;31721;41.740;-88.000;2023-03-26T02:55:06;12;11;
45990;PMS5003;31721;41.740;-88.000;2023-03-26T02:57:34;11;10;
45990;PMS5003;31721;41.740;-88.000;2023-03-26T03:00:02;8;7;
45990;PMS5003;31721;41.740;-88.000;2023-03-26T03:02:30;11;10;
45990;PMS5003;31721;41.740;-88.000;2023-03-26T03:04:58;12;11;
45990;PMS5003;31721;41.740;-88.000;2023-03-26T03:07:26;11;10;
45990;PMS5003;31721;41.740;-88.000;2023-03-26T03:09:54;8;8;
45990;PMS5003;31721;41.740;-88.000;2023-03-26T03:12:22;6;6;
45990;PMS5003;31721;41.740;-88.000;2023-03-26T03:14:50;11;6;
45990;PMS5003;31721;41.740;-88.000;2023-03-26T03:17:18;8;6;
45990;PMS5003;31721;41.740;-88.000;2023-03-26T03:19:46;10;10;
45990;PMS5003;31721;41.740;-88.000;2023-03-26T03:22:15;10;8;
45990;PMS5003;31721;41.740;-88.000;2023-03-26T03:24:43;10;10;
45990;PMS5003;31721;41.740;-88.000;2023-03-26T03:27:12;13;11;
45990;PMS5003;31721;41.740;-88.000;2023-03-26T03:29:39;8;7;
45990;PMS5003;31721;41.740;-88.000;2023-03-26T03:32:07;12;10;
45990;PMS5003;31721;41.740;-88.000;2023-03-26T03:34:35;11;8;
45990;PMS5003;31721;41.740;-88.000;2023-03-26T03:37:03;12;12;
45990;PMS5003;31721;41.740;-88.000;2023-03-26T03:39:32;8;7;
45990;PMS5003;31721;41.740;-88.000;2023-03-26T03:41:59;7;7;
45990;PMS5003;31721;41.740;-88.000;2023-03-26T03:44:28;8;8;
45990;PMS5003;31721;41.740;-88.000;2023-03-26T03:46:56;11;11;
45990;PMS5003;31721;41.740;-88.000;2023-03-26T03:49:24;8;8;
45990;PMS5003;31721;41.740;-88.000;2023-03-26T03:51:52;10;7;
45990;PMS5003;31721;41.740;-88.000;2023-03-26T03:54:20;11;10;
45990;PMS5003;31721;41.740;-88.000;2023-03-26T03:56:49;8;8;
45990;PMS5003;31721;41.740;-88.000;2023-03-26T03:59:17;7;7;
45990;PMS5003;31721;41.740;-88.000;2023-03-26T04:01:45;7;7;
45990;PMS5003;31721;41.740;-88.000;2023-03-26T04:04:13;10;10;
45990;PMS5003;31721;41.740;-88.000;2023-03-26T04:06:42;8;8;
45990;PMS5003;31721;41.740;-88.000;2023-03-26T04:09:10;7;7;
45990;PMS5003;31721;41.740;-88.000;2023-03-26T04:11:38;11;11;
45990;PMS5003;31721;41.740;-88.000;2023-03-26T04:14:06;11;8;
45990;PMS5003;31721;41.740;-88.000;2023-03-26T04:16:34;10;10;
45990;PMS5003;31721;41.740;-88.000;2023-03-26T04:19:03;15;10;
45990;PMS5003;31721;41.740;-88.000;2023-03-26T04:21:31;11;8;
45990;PMS5003;31721;41.740;-88.000;2023-03-26T04:23:59;10;10;
45990;PMS5003;31721;41.740;-88.000;2023-03-26T04:26:27;11;10;
45990;PMS5003;31721;41.740;-88.000;2023-03-26T04:28:56;11;11;
45990;PMS5003;31721;41.740;-88.000;2023-03-26T04:31:26;13;13;
45990;PMS5003;31721;41.740;-88.000;2023-03-26T04:33:55;12;12;
45990;PMS5003;31721;41.740;-88.000;2023-03-26T04:36:28;15;11;
45990;PMS5003;31721;41.740;-88.000;2023-03-26T04:38:56;8;8;
45990;PMS5003;31721;41.740;-88.000;2023-03-26T04:41:26;10;8;
45990;PMS5003;31721;41.740;-88.000;2023-03-26T04:43:54;13;8;
45990;PMS5003;31721;41.740;-88.000;2023-03-26T04:46:22;7;6;
45990;PMS5003;31721;41.740;-88.000;2023-03-26T04:48:51;17;16;
45990;PMS5003;31721;41.740;-88.000;2023-03-26T04:51:22;7;7;
45990;PMS5003;31721;41.740;-88.000;2023-03-26T04:53:56;8;6;
45990;PMS5003;31721;41.740;-88.000;2023-03-26T04:56:29;11;7;
45990;PMS5003;31721;41.740;-88.000;2023-03-26T04:59:04;8;7;
45990;PMS5003;31721;41.740;-88.000;2023-03-26T05:01:37;10;10;
45990;PMS5003;31721;41.740;-88.000;2023-03-26T05:04:05;10;7;
45990;PMS5003;31721;41.740;-88.000;2023-03-26T05:06:32;12;10;
45990;PMS5003;31721;41.740;-88.000;2023-03-26T05:09:00;8;8;
45990;PMS5003;31721;41.740;-88.000;2023-03-26T05:11:28;8;8;
45990;PMS5003;31721;41.740;-88.000;2023-03-26T05:13:56;7;7;
45990;PMS5003;31721;41.740;-88.000;2023-03-26T05:16:24;11;11;
45990;PMS5003;31721;41.740;-88.000;2023-03-26T05:18:52;12;11;
45990;PMS5003;31721;41.740;-88.000;2023-03-26T05:21:20;17;15;
45990;PMS5003;31721;41.740;-88.000;2023-03-26T05:23:49;10;8;
45990;PMS5003;31721;41.740;-88.000;2023-03-26T05:26:17;12;11;
45990;PMS5003;31721;41.740;-88.000;2023-03-26T05:28:45;10;10;
45990;PMS5003;31721;41.740;-88.000;2023-03-26T05:31:13;13;13;
45990;PMS5003;31721;41.740;-88.000;2023-03-26T05:33:43;16;15;
45990;PMS5003;31721;41.740;-88.000;2023-03-26T05:36:11;15;13;
45990;PMS5003;31721;41.740;-88.000;2023-03-26T05:38:41;10;10;
45990;PMS5003;31721;41.740;-88.000;2023-03-26T05:41:09;7;7;
45990;PMS5003;31721;41.740;-88.000;2023-03-26T05:43:37;10;8;
45990;PMS5003;31721;41.740;-88.000;2023-03-26T05:46:05;16;12;
45990;PMS5003;31721;41.740;-88.000;2023-03-26T05:48:33;8;6;
45990;PMS5003;31721;41.740;-88.000;2023-03-26T05:51:01;13;7;
45990;PMS5003;31721;41.740;-88.000;2023-03-26T05:53:30;7;7;
45990;PMS5003;31721;41.740;-88.000;2023-03-26T05:55:58;21;20;
45990;PMS5003;31721;41.740;-88.000;2023-03-26T05:58:26;7;6;
45990;PMS5003;31721;41.740;-88.000;2023-03-26T06:00:55;5;5;
45990;PMS5003;31721;41.740;-88.000;2023-03-26T06:03:24;7;7;
45990;PMS5003;31721;41.740;-88.000;2023-03-26T06:05:52;15;8;
45990;PMS5003;31721;41.740;-88.000;2023-03-26T06:08:20;7;6;
45990;PMS5003;31721;41.740;-88.000;2023-03-26T06:10:48;7;6;
45990;PMS5003;31721;41.740;-88.000;2023-03-26T06:13:16;6;6;
45990;PMS5003;31721;41.740;-88.000;2023-03-26T06:15:45;15;12;
45990;PMS5003;31721;41.740;-88.000;2023-03-26T06:18:13;5;5;
45990;PMS5003;31721;41.740;-88.000;2023-03-26T06:20:41;10;8;
45990;PMS5003;31721;41.740;-88.000;2023-03-26T06:23:10;14;14;
45990;PMS5003;31721;41.740;-88.000;2023-03-26T06:25:37;10;7;
45990;PMS5003;31721;41.740;-88.000;2023-03-26T06:28:05;7;7;
45990;PMS5003;31721;41.740;-88.000;2023-03-26T06:30:32;11;10;
45990;PMS5003;31721;41.740;-88.000;2023-03-26T06:33:00;8;8;
45990;PMS5003;31721;41.740;-88.000;2023-03-26T06:35:27;6;6;
45990;PMS5003;31721;41.740;-88.000;2023-03-26T06:37:56;7;6;
45990;PMS5003;31721;41.740;-88.000;2023-03-26T06:40:24;7;7;
45990;PMS5003;31721;41.740;-88.000;2023-03-26T06:42:52;10;7;
45990;PMS5003;31721;41.740;-88.000;2023-03-26T06:45:20;9;7;
45990;PMS5003;31721;41.740;-88.000;2023-03-26T06:47:47;12;9;
45990;PMS5003;31721;41.740;-88.000;2023-03-26T06:50:15;7;7;
45990;PMS5003;31721;41.740;-88.000;2023-03-26T06:52:43;9;6;
45990;PMS5003;31721;41.740;-88.000;2023-03-26T06:55:12;11;9;
45990;PMS5003;31721;41.740;-88.000;2023-03-26T06:57:40;6;6;
45990;PMS5003;31721;41.740;-88.000;2023-03-26T07:00:08;10;5;
45990;PMS5003;31721;41.740;-88.000;2023-03-26T07:02:37;6;6;
45990;PMS5003;31721;41.740;-88.000;2023-03-26T07:05:06;9;6;
45990;PMS5003;31721;41.740;-88.000;2023-03-26T07:07:34;14;13;
45990;PMS5003;31721;41.740;-88.000;2023-03-26T07:10:02;10;6;
45990;PMS5003;31721;41.740;-88.000;2023-03-26T07:12:30;11;9;
45990;PMS5003;31721;41.740;-88.000;2023-03-26T07:14:58;10;7;
45990;PMS5003;31721;41.740;-88.000;2023-03-26T07:17:27;13;10;
45990;PMS5003;31721;41.740;-88.000;2023-03-26T07:19:55;7;7;
45990;PMS5003;31721;41.740;-88.000;2023-03-26T07:22:23;10;10;
45990;PMS5003;31721;41.740;-88.000;2023-03-26T07:24:51;10;9;
45990;PMS5003;31721;41.740;-88.000;2023-03-26T07:27:23;9;7;
45990;PMS5003;31721;41.740;-88.000;2023-03-26T07:30:03;10;9;
45990;PMS5003;31721;41.740;-88.000;2023-03-26T07:32:36;8;6;
45990;PMS5003;31721;41.740;-88.000;2023-03-26T07:35:13;10;6;
45990;PMS5003;31721;41.740;-88.000;2023-03-26T07:37:49;10;6;
45990;PMS5003;31721;41.740;-88.000;2023-03-26T07:40:35;7;7;
45990;PMS5003;31721;41.740;-88.000;2023-03-26T07:43:13;9;9;
45990;PMS5003;31721;41.740;-88.000;2023-03-26T07:45:53;11;10;
45990;PMS5003;31721;41.740;-88.000;2023-03-26T07:48:22;13;10;
45990;PMS5003;31721;41.740;-88.000;2023-03-26T07:50:53;7;7;
45990;PMS5003;31721;41.740;-88.000;2023-03-26T07:53:21;5;5;
45990;PMS5003;31721;41.740;-88.000;2023-03-26T07:55:51;6;6;
45990;PMS5003;31721;41.740;-88.000;2023-03-26T07:58:32;10;7;
45990;PMS5003;31721;41.740;-88.000;2023-03-26T08:01:13;9;7;
45990;PMS5003;31721;41.740;-88.000;2023-03-26T08:03:55;11;11;
45990;PMS5003;31721;41.740;-88.000;2023-03-26T08:06:34;5;5;
45990;PMS5003;31721;41.740;-88.000;2023-03-26T08:09:06;7;5;
45990;PMS5003;31721;41.740;-88.000;2023-03-26T08:11:43;5;5;
45990;PMS5003;31721;41.740;-88.000;2023-03-26T08:14:27;9;6;
45990;PMS5003;31721;41.740;-88.000;2023-03-26T08:17:05;8;8;
45990;PMS5003;31721;41.740;-88.000;2023-03-26T08:19:41;5;5;
45990;PMS5003;31721;41.740;-88.000;2023-03-26T08:22:18;11;9;
45990;PMS5003;31721;41.740;-88.000;2023-03-26T08:24:53;10;10;
45990;PMS5003;31721;41.740;-88.000;2023-03-26T08:27:31;9;9;
45990;PMS5003;31721;41.740;-88.000;2023-03-26T08:30:06;6;5;
45990;PMS5003;31721;41.740;-88.000;2023-03-26T08:32:41;9;9;
45990;PMS5003;31721;41.740;-88.000;2023-03-26T08:35:18;9;9;
45990;PMS5003;31721;41.740;-88.000;2023-03-26T08:37:46;12;8;
45990;PMS5003;31721;41.740;-88.000;2023-03-26T08:40:15;8;6;
45990;PMS5003;31721;41.740;-88.000;2023-03-26T08:43:01;14;9;
45990;PMS5003;31721;41.740;-88.000;2023-03-26T08:45:49;6;6;
45990;PMS5003;31721;41.740;-88.000;2023-03-26T08:49:42;8;8;
45990;PMS5003;31721;41.740;-88.000;2023-03-26T08:52:29;10;5;
45990;PMS5003;31721;41.740;-88.000;2023-03-26T08:55:33;6;6;
45990;PMS5003;31721;41.740;-88.000;2023-03-26T08:58:11;9;8;
45990;PMS5003;31721;41.740;-88.000;2023-03-26T09:01:22;10;8;
45990;PMS5003;31721;41.740;-88.000;2023-03-26T09:04:05;9;8;
45990;PMS5003;31721;41.740;-88.000;2023-03-26T09:07:00;12;9;
45990;PMS5003;31721;41.740;-88.000;2023-03-26T09:14:40;10;8;
45990;PMS5003;31721;41.740;-88.000;2023-03-26T09:17:39;16;14;
45990;PMS5003;31721;41.740;-88.000;2023-03-26T09:22:10;12;10;
45990;PMS5003;31721;41.740;-88.000;2023-03-26T09:25:14;8;6;
45990;PMS5003;31721;41.740;-88.000;2023-03-26T09:27:57;10;10;
45990;PMS5003;31721;41.740;-88.000;2023-03-26T09:30:46;10;9;
45990;PMS5003;31721;41.740;-88.000;2023-03-26T09:34:06;10;8;
45990;PMS5003;31721;41.740;-88.000;2023-03-26T09:36:52;8;6;
45990;PMS5003;31721;41.740;-88.000;2023-03-26T09:39:24;10;8;
45990;PMS5003;31721;41.740;-88.000;2023-03-26T09:42:05;10;9;
45990;PMS5003;31721;41.740;-88.000;2023-03-26T09:44:43;8;8;
45990;PMS5003;31721;41.740;-88.000;2023-03-26T09:48:35;10;9;
45990;PMS5003;31721;41.740;-88.000;2023-03-26T09:51:19;8;8;
45990;PMS5003;31721;41.740;-88.000;2023-03-26T09:54:21;9;9;
45990;PMS5003;31721;41.740;-88.000;2023-03-26T09:57:22;9;8;
45990;PMS5003;31721;41.740;-88.000;2023-03-26T10:00:06;10;10;
45990;PMS5003;31721;41.740;-88.000;2023-03-26T10:02:49;13;9;
45990;PMS5003;31721;41.740;-88.000;2023-03-26T10:05:31;13;12;
45990;PMS5003;31721;41.740;-88.000;2023-03-26T10:08:15;9;9;
45990;PMS5003;31721;41.740;-88.000;2023-03-26T10:10:56;13;9;
45990;PMS5003;31721;41.740;-88.000;2023-03-26T10:13:31;10;9;
45990;PMS5003;31721;41.740;-88.000;2023-03-26T10:16:08;8;6;
45990;PMS5003;31721;41.740;-88.000;2023-03-26T10:18:50;10;10;
45990;PMS5003;31721;41.740;-88.000;2023-03-26T10:21:32;6;6;
45990;PMS5003;31721;41.740;-88.000;2023-03-26T10:24:19;10;10;
45990;PMS5003;31721;41.740;-88.000;2023-03-26T10:27:01;7;7;
45990;PMS5003;31721;41.740;-88.000;2023-03-26T10:29:47;10;7;
45990;PMS5003;31721;41.740;-88.000;2023-03-26T10:32:30;7;7;
45990;PMS5003;31721;41.740;-88.000;2023-03-26T10:35:07;8;8;
45990;PMS5003;31721;41.740;-88.000;2023-03-26T10:37:49;9;8;
45990;PMS5003;31721;41.740;-88.000;2023-03-26T10:40:29;10;7;
45990;PMS5003;31721;41.740;-88.000;2023-03-26T10:43:09;9;9;
45990;PMS5003;31721;41.740;-88.000;2023-03-26T10:45:55;7;7;
45990;PMS5003;31721;41.740;-88.000;2023-03-26T10:48:49;11;10;
45990;PMS5003;31721;41.740;-88.000;2023-03-26T10:51:34;17;10;
45990;PMS5003;31721;41.740;-88.000;2023-03-26T10:54:13;10;9;
45990;PMS5003;31721;41.740;-88.000;2023-03-26T10:56:50;9;5;
45990;PMS5003;31721;41.740;-88.000;2023-03-26T10:59:20;7;7;
45990;PMS5003;31721;41.740;-88.000;2023-03-26T11:01:53;13;10;
45990;PMS5003;31721;41.740;-88.000;2023-03-26T11:04:33;17;11;
45990;PMS5003;31721;41.740;-88.000;2023-03-26T11:07:10;11;9;
45990;PMS5003;31721;41.740;-88.000;2023-03-26T11:09:48;13;10;
45990;PMS5003;31721;41.740;-88.000;2023-03-26T11:12:24;15;14;
45990;PMS5003;31721;41.740;-88.000;2023-03-26T11:15:01;9;9;
45990;PMS5003;31721;41.740;-88.000;2023-03-26T11:17:42;13;7;
45990;PMS5003;31721;41.740;-88.000;2023-03-26T11:20:17;21;11;
45990;PMS5003;31721;41.740;-88.000;2023-03-26T11:22:57;10;10;
45990;PMS5003;31721;41.740;-88.000;2023-03-26T11:25:41;7;7;
45990;PMS5003;31721;41.740;-88.000;2023-03-26T11:28:21;18;13;
45990;PMS5003;31721;41.740;-88.000;2023-03-26T11:31:00;11;7;
45990;PMS5003;31721;41.740;-88.000;2023-03-26T11:33:34;15;10;
45990;PMS5003;31721;41.740;-88.000;2023-03-26T11:36:09;10;9;
45990;PMS5003;31721;41.740;-88.000;2023-03-26T11:38:40;9;9;
45990;PMS5003;31721;41.740;-88.000;2023-03-26T11:41:10;13;7;
45990;PMS5003;31721;41.740;-88.000;2023-03-26T11:43:41;10;7;
45990;PMS5003;31721;41.740;-88.000;2023-03-26T11:46:12;14;11;
45990;PMS5003;31721;41.740;-88.000;2023-03-26T11:48:44;10;9;
45990;PMS5003;31721;41.740;-88.000;2023-03-26T11:51:16;7;6;
45990;PMS5003;31721;41.740;-88.000;2023-03-26T11:53:48;11;9;
45990;PMS5003;31721;41.740;-88.000;2023-03-26T11:56:18;13;13;
45990;PMS5003;31721;41.740;-88.000;2023-03-26T11:58:52;15;15;
45990;PMS5003;31721;41.740;-88.000;2023-03-26T12:01:25;10;9;
45990;PMS5003;31721;41.740;-88.000;2023-03-26T12:03:55;11;9;
45990;PMS5003;31721;41.740;-88.000;2023-03-26T12:06:28;11;10;
45990;PMS5003;31721;41.740;-88.000;2023-03-26T12:08:56;9;9;
45990;PMS5003;31721;41.740;-88.000;2023-03-26T12:11:24;11;9;
45990;PMS5003;31721;41.740;-88.000;2023-03-26T12:13:56;7;7;
45990;PMS5003;31721;41.740;-88.000;2023-03-26T12:16:27;13;10;
45990;PMS5003;31721;41.740;-88.000;2023-03-26T12:18:58;6;6;
45990;PMS5003;31721;41.740;-88.000;2023-03-26T12:21:27;14;11;
45990;PMS5003;31721;41.740;-88.000;2023-03-26T12:23:56;11;10;
45990;PMS5003;31721;41.740;-88.000;2023-03-26T12:26:29;9;7;
45990;PMS5003;31721;41.740;-88.000;2023-03-26T12:29:04;7;6;
45990;PMS5003;31721;41.740;-88.000;2023-03-26T12:31:45;11;7;
45990;PMS5003;31721;41.740;-88.000;2023-03-26T12:34:18;11;10;
45990;PMS5003;31721;41.740;-88.000;2023-03-26T12:36:50;10;9;
45990;PMS5003;31721;41.740;-88.000;2023-03-26T12:39:29;9;9;
45990;PMS5003;31721;41.740;-88.000;2023-03-26T12:41:59;18;17;
45990;PMS5003;31721;41.740;-88.000;2023-03-26T12:44:29;13;9;
45990;PMS5003;31721;41.740;-88.000;2023-03-26T12:47:06;10;9;
45990;PMS5003;31721;41.740;-88.000;2023-03-26T12:49:40;11;9;
45990;PMS5003;31721;41.740;-88.000;2023-03-26T12:52:15;14;10;
45990;PMS5003;31721;41.740;-88.000;2023-03-26T12:55:32;15;11;
45990;PMS5003;31721;41.740;-88.000;2023-03-26T12:58:11;10;9;
45990;PMS5003;31721;41.740;-88.000;2023-03-26T13:00:54;12;12;
45990;PMS5003;31721;41.740;-88.000;2023-03-26T13:03:35;15;10;
45990;PMS5003;31721;41.740;-88.000;2023-03-26T13:06:14;18;10;
45990;PMS5003;31721;41.740;-88.000;2023-03-26T13:09:03;16;15;
45990;PMS5003;31721;41.740;-88.000;2023-03-26T13:11:46;16;14;
45990;PMS5003;31721;41.740;-88.000;2023-03-26T13:14:29;10;10;
45990;PMS5003;31721;41.740;-88.000;2023-03-26T13:17:08;15;12;
45990;PMS5003;31721;41.740;-88.000;2023-03-26T13:19:44;15;14;
45990;PMS5003;31721;41.740;-88.000;2023-03-26T13:22:21;20;15;
45990;PMS5003;31721;41.740;-88.000;2023-03-26T13:24:56;15;13;
45990;PMS5003;31721;41.740;-88.000;2023-03-26T13:27:40;16;11;
45990;PMS5003;31721;41.740;-88.000;2023-03-26T13:30:20;13;12;
45990;PMS5003;31721;41.740;-88.000;2023-03-26T13:33:00;20;17;
45990;PMS5003;31721;41.740;-88.000;2023-03-26T13:35:42;20;15;
45990;PMS5003;31721;41.740;-88.000;2023-03-26T13:38:17;16;13;
45990;PMS5003;31721;41.740;-88.000;2023-03-26T13:40:56;22;19;
45990;PMS5003;31721;41.740;-88.000;2023-03-26T13:43:35;15;12;
45990;PMS5003;31721;41.740;-88.000;2023-03-26T13:46:13;13;13;
45990;PMS5003;31721;41.740;-88.000;2023-03-26T13:48:53;15;10;
45990;PMS5003;31721;41.740;-88.000;2023-03-26T13:51:27;13;13;
45990;PMS5003;31721;41.740;-88.000;2023-03-26T13:54:04;15;11;
45990;PMS5003;31721;41.740;-88.000;2023-03-26T13:56:43;11;8;
45990;PMS5003;31721;41.740;-88.000;2023-03-26T13:59:16;17;15;
45990;PMS5003;31721;41.740;-88.000;2023-03-26T14:01:49;18;13;
45990;PMS5003;31721;41.740;-88.000;2023-03-26T14:04:22;17;12;
45990;PMS5003;31721;41.740;-88.000;2023-03-26T14:06:55;12;12;
45990;PMS5003;31721;41.740;-88.000;2023-03-26T14:09:30;13;13;
45990;PMS5003;31721;41.740;-88.000;2023-03-26T14:12:10;12;11;
45990;PMS5003;31721;41.740;-88.000;2023-03-26T14:14:49;13;11;
45990;PMS5003;31721;41.740;-88.000;2023-03-26T14:17:23;11;11;
45990;PMS5003;31721;41.740;-88.000;2023-03-26T14:20:04;16;14;
45990;PMS5003;31721;41.740;-88.000;2023-03-26T14:25:06;14;13;
45990;PMS5003;31721;41.740;-88.000;2023-03-26T14:27:53;15;12;
45990;PMS5003;31721;41.740;-88.000;2023-03-26T14:30:51;15;11;
45990;PMS5003;31721;41.740;-88.000;2023-03-26T14:33:31;11;11;
45990;PMS5003;31721;41.740;-88.000;2023-03-26T14:36:13;9;8;
45990;PMS5003;31721;41.740;-88.000;2023-03-26T14:38:57;11;11;
45990;PMS5003;31721;41.740;-88.000;2023-03-26T14:41:45;13;12;
45990;PMS5003;31721;41.740;-88.000;2023-03-26T14:44:24;12;8;
45990;PMS5003;31721;41.740;-88.000;2023-03-26T14:47:09;9;8;
45990;PMS5003;31721;41.740;-88.000;2023-03-26T14:49:48;10;10;
45990;PMS5003;31721;41.740;-88.000;2023-03-26T14:52:46;14;12;
45990;PMS5003;31721;41.740;-88.000;2023-03-26T14:55:17;10;9;
45990;PMS5003;31721;41.740;-88.000;2023-03-26T14:58:24;13;9;
45990;PMS5003;31721;41.740;-88.000;2023-03-26T15:01:19;20;18;
45990;PMS5003;31721;41.740;-88.000;2023-03-26T15:04:46;14;13;
45990;PMS5003;31721;41.740;-88.000;2023-03-26T15:07:45;16;10;
45990;PMS5003;31721;41.740;-88.000;2023-03-26T15:10:54;8;7;
45990;PMS5003;31721;41.740;-88.000;2023-03-26T15:14:18;7;7;
45990;PMS5003;31721;41.740;-88.000;2023-03-26T15:18:04;8;8;
45990;PMS5003;31721;41.740;-88.000;2023-03-26T15:22:04;9;8;
45990;PMS5003;31721;41.740;-88.000;2023-03-26T15:25:08;9;9;
45990;PMS5003;31721;41.740;-88.000;2023-03-26T15:27:56;11;10;
45990;PMS5003;31721;41.740;-88.000;2023-03-26T15:30:56;9;9;
45990;PMS5003;31721;41.740;-88.000;2023-03-26T15:34:17;17;12;
45990;PMS5003;31721;41.740;-88.000;2023-03-26T15:37:22;14;10;
45990;PMS5003;31721;41.740;-88.000;2023-03-26T15:40:23;11;11;
45990;PMS5003;31721;41.740;-88.000;2023-03-26T15:43:02;7;7;
45990;PMS5003;31721;41.740;-88.000;2023-03-26T15:45:36;7;7;
45990;PMS5003;31721;41.740;-88.000;2023-03-26T15:48:42;8;7;
45990;PMS5003;31721;41.740;-88.000;2023-03-26T15:51:23;9;8;
45990;PMS5003;31721;41.740;-88.000;2023-03-26T15:54:03;10;8;
45990;PMS5003;31721;41.740;-88.000;2023-03-26T15:56:45;9;9;
45990;PMS5003;31721;41.740;-88.000;2023-03-26T15:59:26;12;8;
45990;PMS5003;31721;41.740;-88.000;2023-03-26T16:02:07;8;8;
45990;PMS5003;31721;41.740;-88.000;2023-03-26T16:04:47;15;9;
45990;PMS5003;31721;41.740;-88.000;2023-03-26T16:07:51;9;8;
45990;PMS5003;31721;41.740;-88.000;2023-03-26T16:10:28;16;11;
45990;PMS5003;31721;41.740;-88.000;2023-03-26T16:13:38;16;11;
45990;PMS5003;31721;41.740;-88.000;2023-03-26T16:16:24;12;11;
45990;PMS5003;31721;41.740;-88.000;2023-03-26T16:19:30;19;17;
45990;PMS5003;31721;41.740;-88.000;2023-03-26T16:22:12;13;12;
45990;PMS5003;31721;41.740;-88.000;2023-03-26T16:25:33;16;11;
45990;PMS5003;31721;41.740;-88.000;2023-03-26T16:28:25;10;10;
45990;PMS5003;31721;41.740;-88.000;2023-03-26T16:31:18;21;19;
45990;PMS5003;31721;41.740;-88.000;2023-03-26T16:33:50;17;16;
45990;PMS5003;31721;41.740;-88.000;2023-03-26T16:36:24;12;12;
45990;PMS5003;31721;41.740;-88.000;2023-03-26T16:39:10;13;13;
45990;PMS5003;31721;41.740;-88.000;2023-03-26T16:41:50;23;20;
45990;PMS5003;31721;41.740;-88.000;2023-03-26T16:44:25;19;15;
45990;PMS5003;31721;41.740;-88.000;2023-03-26T16:47:00;13;11;
45990;PMS5003;31721;41.740;-88.000;2023-03-26T16:49:58;19;18;
45990;PMS5003;31721;41.740;-88.000;2023-03-26T16:52:42;17;15;
45990;PMS5003;31721;41.740;-88.000;2023-03-26T16:55:18;14;14;
45990;PMS5003;31721;41.740;-88.000;2023-03-26T16:57:52;17;16;
45990;PMS5003;31721;41.740;-88.000;2023-03-26T17:00:30;15;15;
45990;PMS5003;31721;41.740;-88.000;2023-03-26T17:03:12;16;16;
45990;PMS5003;31721;41.740;-88.000;2023-03-26T17:05:57;18;18;
45990;PMS5003;31721;41.740;-88.000;2023-03-26T17:08:36;27;23;
45990;PMS5003;31721;41.740;-88.000;2023-03-26T17:11:17;23;22;
45990;PMS5003;31721;41.740;-88.000;2023-03-26T17:13:53;19;17;